Biggs Army Air Field (Fort Bliss)
KBIF : now visible

Airfield :











YOU CAN JOIN US ON...

 
LOGIN :

Register | Disclaimer

   EN    FR    IT 

 









Legend :    VFR   Marginal VFR   IFR   Intensive IFR   Very Intensive IFR
Visi :
Ceiling :
>= 8 km
>= 3000ft
5 to 8 km
1000 to 3000 ft
1500m to 5 km
500 to 1000 ft
800 to 1500m
200 to 500 ft
< 800m
< 200 ft
Symbols :   Thunderstorms  Fog  Heavy snow  Heavy precipitations  Wind > 20 kt






- Airport Elevation : 3946 ft


KBIF - Biggs Army Air Field (Fort Bliss)

CURRENT METAR :
  • 261258Z AUTO 35006KT 10SM FEW270 13/11 A3012 RMK AO2 SLP152 T01320109 $

EXPIRED METARs :
  • 261158Z AUTO 00000KT 10SM FEW260 15/12 A3012 RMK AO2 SLP147 T01490115 10182 20142 56003 $
  • 261058Z AUTO 00000KT 10SM CLR 17/13 A3012 RMK AO2 SLP145 T01650125 $

TAF COR TAF KBIF
Valid from the 26 at 06:00 until the 27 at 12:00 UTC


260612Z 2606/2712 VRB06KT 9999 FEW190 SCT210 QNH3010INS
BECMG 2616/2617 VRB06KT 9999 VCSH SCT080 BKN130 QNH2999INS
TEMPO 2620/2623 VRB15G25KT 8000 TSRA OVC100CB
BECMG 2704/2705 VRB06KT 9999 NSW SCT080 BKN120 QNH3007INS TX29/2622Z TN18/2611Z
KZAB FIR / North America



MET'MAP, your aeronautical weather chart ! - Copyright ORBIFLY December 2007 - Disclaimer

ORBIFLY MET'MAP TEAM :

Programming & Development : Alexandra Zaïnal
Concept & original design : Baudouin d'Aumeries
Assistance for programming : Marc-Olivier Méhu
Technical & hardware support : Manuel Goepfert

Contact : metmap@orbifly.com




SOURCES & CREDITS :

   NOAA       Earth
Advisory